sensor_id;sensor_type;location;lat;lon;timestamp;temperature;humidity
18648;DHT22;9453;50.294;18.644;2023-02-27T05:02:11;0.20;95.60
18648;DHT22;9453;50.294;18.644;2023-02-27T05:04:42;0.20;95.80
18648;DHT22;9453;50.294;18.644;2023-02-27T05:07:13;0.20;95.70
18648;DHT22;9453;50.294;18.644;2023-02-27T05:15:55;0.30;95.90
18648;DHT22;9453;50.294;18.644;2023-02-27T05:18:25;0.30;95.90
18648;DHT22;9453;50.294;18.644;2023-02-27T05:21:00;0.30;96.10
18648;DHT22;9453;50.294;18.644;2023-02-27T05:23:37;0.30;95.90
18648;DHT22;9453;50.294;18.644;2023-02-27T05:26:14;0.30;95.90
18648;DHT22;9453;50.294;18.644;2023-02-27T05:28:49;0.30;95.90
18648;DHT22;9453;50.294;18.644;2023-02-27T05:31:21;0.20;95.90
18648;DHT22;9453;50.294;18.644;2023-02-27T05:33:54;0.30;95.90
18648;DHT22;9453;50.294;18.644;2023-02-27T05:36:27;0.30;95.40
18648;DHT22;9453;50.294;18.644;2023-02-27T05:38:58;0.30;95.50
18648;DHT22;9453;50.294;18.644;2023-02-27T05:41:30;0.30;94.80
18648;DHT22;9453;50.294;18.644;2023-02-27T05:44:04;0.30;94.80
18648;DHT22;9453;50.294;18.644;2023-02-27T05:46:35;0.40;94.60
18648;DHT22;9453;50.294;18.644;2023-02-27T05:49:07;0.30;94.50
18648;DHT22;9453;50.294;18.644;2023-02-27T05:51:37;0.40;94.60
18648;DHT22;9453;50.294;18.644;2023-02-27T05:54:14;0.40;94.40
18648;DHT22;9453;50.294;18.644;2023-02-27T05:56:46;0.40;94.50
18648;DHT22;9453;50.294;18.644;2023-02-27T05:59:21;0.30;94.20
18648;DHT22;9453;50.294;18.644;2023-02-27T06:01:49;0.30;94.80
18648;DHT22;9453;50.294;18.644;2023-02-27T06:04:18;0.30;94.60
18648;DHT22;9453;50.294;18.644;2023-02-27T06:06:46;0.30;94.80
18648;DHT22;9453;50.294;18.644;2023-02-27T06:09:14;0.30;94.80
18648;DHT22;9453;50.294;18.644;2023-02-27T06:11:42;0.30;94.80
18648;DHT22;9453;50.294;18.644;2023-02-27T06:14:09;0.30;94.80
18648;DHT22;9453;50.294;18.644;2023-02-27T06:16:36;0.40;95.00
18648;DHT22;9453;50.294;18.644;2023-02-27T06:19:04;0.40;94.90
18648;DHT22;9453;50.294;18.644;2023-02-27T06:21:38;0.40;94.90
18648;DHT22;9453;50.294;18.644;2023-02-27T06:24:08;0.40;95.10
18648;DHT22;9453;50.294;18.644;2023-02-27T06:26:36;0.40;95.00
18648;DHT22;9453;50.294;18.644;2023-02-27T06:29:03;0.40;95.10
18648;DHT22;9453;50.294;18.644;2023-02-27T06:31:30;0.40;95.30
18648;DHT22;9453;50.294;18.644;2023-02-27T06:33:57;0.40;95.30
18648;DHT22;9453;50.294;18.644;2023-02-27T06:36:24;0.50;95.50
18648;DHT22;9453;50.294;18.644;2023-02-27T06:38:52;0.40;95.40
18648;DHT22;9453;50.294;18.644;2023-02-27T06:41:19;0.40;95.40
18648;DHT22;9453;50.294;18.644;2023-02-27T06:43:46;0.40;95.60
18648;DHT22;9453;50.294;18.644;2023-02-27T06:46:13;0.50;95.80
18648;DHT22;9453;50.294;18.644;2023-02-27T06:48:40;0.50;95.90
18648;DHT22;9453;50.294;18.644;2023-02-27T06:51:07;0.60;95.70
18648;DHT22;9453;50.294;18.644;2023-02-27T06:53:34;0.60;95.60
18648;DHT22;9453;50.294;18.644;2023-02-27T06:56:03;0.70;95.90
18648;DHT22;9453;50.294;18.644;2023-02-27T06:58:30;0.70;95.50
18648;DHT22;9453;50.294;18.644;2023-02-27T07:00:57;0.70;95.60
18648;DHT22;9453;50.294;18.644;2023-02-27T07:03:25;0.70;95.70
18648;DHT22;9453;50.294;18.644;2023-02-27T07:05:52;0.70;95.60
18648;DHT22;9453;50.294;18.644;2023-02-27T07:08:19;0.80;95.40
18648;DHT22;9453;50.294;18.644;2023-02-27T07:10:46;0.80;95.40
18648;DHT22;9453;50.294;18.644;2023-02-27T07:13:15;0.90;95.50
18648;DHT22;9453;50.294;18.644;2023-02-27T07:15:42;0.80;95.40
18648;DHT22;9453;50.294;18.644;2023-02-27T07:18:09;0.80;95.80
18648;DHT22;9453;50.294;18.644;2023-02-27T07:20:36;0.80;96.00
18648;DHT22;9453;50.294;18.644;2023-02-27T07:23:04;0.90;96.20
18648;DHT22;9453;50.294;18.644;2023-02-27T07:25:31;0.90;96.20
18648;DHT22;9453;50.294;18.644;2023-02-27T07:27:58;1.00;96.20
18648;DHT22;9453;50.294;18.644;2023-02-27T07:30:26;1.10;96.40
18648;DHT22;9453;50.294;18.644;2023-02-27T07:32:55;1.20;96.30
18648;DHT22;9453;50.294;18.644;2023-02-27T07:35:22;1.10;95.90
18648;DHT22;9453;50.294;18.644;2023-02-27T07:37:49;1.10;96.30
18648;DHT22;9453;50.294;18.644;2023-02-27T07:40:16;1.20;96.30
18648;DHT22;9453;50.294;18.644;2023-02-27T07:42:43;1.20;96.40
18648;DHT22;9453;50.294;18.644;2023-02-27T07:45:12;1.20;96.80
18648;DHT22;9453;50.294;18.644;2023-02-27T07:47:40;1.20;96.80
18648;DHT22;9453;50.294;18.644;2023-02-27T07:50:08;1.30;96.90
18648;DHT22;9453;50.294;18.644;2023-02-27T07:52:38;1.30;97.20
18648;DHT22;9453;50.294;18.644;2023-02-27T07:55:09;1.40;97.30
18648;DHT22;9453;50.294;18.644;2023-02-27T07:57:37;1.60;97.10
18648;DHT22;9453;50.294;18.644;2023-02-27T08:00:06;1.60;96.80
18648;DHT22;9453;50.294;18.644;2023-02-27T08:02:34;1.50;96.90
18648;DHT22;9453;50.294;18.644;2023-02-27T08:05:06;1.60;97.30
18648;DHT22;9453;50.294;18.644;2023-02-27T08:07:33;1.60;96.80
18648;DHT22;9453;50.294;18.644;2023-02-27T08:10:01;1.70;97.40
18648;DHT22;9453;50.294;18.644;2023-02-27T08:12:28;1.70;97.20
18648;DHT22;9453;50.294;18.644;2023-02-27T08:14:55;1.60;97.60
18648;DHT22;9453;50.294;18.644;2023-02-27T08:17:22;1.50;97.50
18648;DHT22;9453;50.294;18.644;2023-02-27T08:19:49;1.50;97.70
18648;DHT22;9453;50.294;18.644;2023-02-27T08:22:17;1.50;97.60
18648;DHT22;9453;50.294;18.644;2023-02-27T08:24:44;1.60;97.70
18648;DHT22;9453;50.294;18.644;2023-02-27T08:27:11;1.50;97.60
18648;DHT22;9453;50.294;18.644;2023-02-27T08:29:39;1.60;97.60
18648;DHT22;9453;50.294;18.644;2023-02-27T08:32:06;1.80;97.70
18648;DHT22;9453;50.294;18.644;2023-02-27T08:34:33;1.90;97.60
18648;DHT22;9453;50.294;18.644;2023-02-27T08:37:00;2.00;96.90
18648;DHT22;9453;50.294;18.644;2023-02-27T08:39:28;1.90;97.10
18648;DHT22;9453;50.294;18.644;2023-02-27T08:41:55;2.10;97.20
18648;DHT22;9453;50.294;18.644;2023-02-27T08:44:22;2.10;96.60
18648;DHT22;9453;50.294;18.644;2023-02-27T08:46:49;2.00;96.90
18648;DHT22;9453;50.294;18.644;2023-02-27T08:49:16;1.90;96.60
18648;DHT22;9453;50.294;18.644;2023-02-27T08:51:44;1.70;97.20
18648;DHT22;9453;50.294;18.644;2023-02-27T08:54:11;1.70;97.40
18648;DHT22;9453;50.294;18.644;2023-02-27T08:56:39;1.70;98.30
18648;DHT22;9453;50.294;18.644;2023-02-27T08:59:06;1.80;98.50
18648;DHT22;9453;50.294;18.644;2023-02-27T09:01:33;2.00;98.40
18648;DHT22;9453;50.294;18.644;2023-02-27T09:04:01;2.00;98.80
18648;DHT22;9453;50.294;18.644;2023-02-27T09:06:28;2.10;98.80
18648;DHT22;9453;50.294;18.644;2023-02-27T09:08:56;2.10;99.00
18648;DHT22;9453;50.294;18.644;2023-02-27T09:11:23;2.10;99.00
18648;DHT22;9453;50.294;18.644;2023-02-27T09:13:52;2.30;99.70
18648;DHT22;9453;50.294;18.644;2023-02-27T09:16:20;2.50;99.90
18648;DHT22;9453;50.294;18.644;2023-02-27T09:18:48;2.60;99.90
18648;DHT22;9453;50.294;18.644;2023-02-27T09:21:15;2.70;99.90
18648;DHT22;9453;50.294;18.644;2023-02-27T09:23:42;2.50;99.90
18648;DHT22;9453;50.294;18.644;2023-02-27T09:26:09;2.30;99.90
18648;DHT22;9453;50.294;18.644;2023-02-27T09:28:36;2.20;99.90
18648;DHT22;9453;50.294;18.644;2023-02-27T09:31:09;2.20;99.90
18648;DHT22;9453;50.294;18.644;2023-02-27T09:33:37;2.20;99.90
18648;DHT22;9453;50.294;18.644;2023-02-27T09:36:04;2.40;99.90
18648;DHT22;9453;50.294;18.644;2023-02-27T09:38:32;2.50;99.90
18648;DHT22;9453;50.294;18.644;2023-02-27T09:41:00;2.60;99.90
18648;DHT22;9453;50.294;18.644;2023-02-27T09:43:32;2.70;99.90
18648;DHT22;9453;50.294;18.644;2023-02-27T09:46:01;2.50;99.90
18648;DHT22;9453;50.294;18.644;2023-02-27T09:48:34;2.30;99.90
18648;DHT22;9453;50.294;18.644;2023-02-27T09:51:03;2.40;99.90
18648;DHT22;9453;50.294;18.644;2023-02-27T09:53:33;2.70;99.90
18648;DHT22;9453;50.294;18.644;2023-02-27T09:56:07;3.10;99.90
18648;DHT22;9453;50.294;18.644;2023-02-27T09:58:42;3.20;99.90
18648;DHT22;9453;50.294;18.644;2023-02-27T10:01:14;2.80;99.40
18648;DHT22;9453;50.294;18.644;2023-02-27T10:04:15;2.80;99.90
18648;DHT22;9453;50.294;18.644;2023-02-27T10:06:47;2.90;99.90
18648;DHT22;9453;50.294;18.644;2023-02-27T10:09:27;3.10;98.30
18648;DHT22;9453;50.294;18.644;2023-02-27T10:12:03;3.10;97.80
18648;DHT22;9453;50.294;18.644;2023-02-27T10:14:38;2.90;97.50
18648;DHT22;9453;50.294;18.644;2023-02-27T10:17:14;2.90;97.00
18648;DHT22;9453;50.294;18.644;2023-02-27T10:19:46;2.90;96.50
18648;DHT22;9453;50.294;18.644;2023-02-27T10:22:19;2.60;96.00
18648;DHT22;9453;50.294;18.644;2023-02-27T10:24:52;2.40;96.00
18648;DHT22;9453;50.294;18.644;2023-02-27T10:27:20;2.40;96.60
18648;DHT22;9453;50.294;18.644;2023-02-27T10:29:47;2.50;96.40
18648;DHT22;9453;50.294;18.644;2023-02-27T10:32:18;2.70;97.00
18648;DHT22;9453;50.294;18.644;2023-02-27T10:34:50;2.80;96.10
18648;DHT22;9453;50.294;18.644;2023-02-27T10:37:21;3.00;96.10
18648;DHT22;9453;50.294;18.644;2023-02-27T10:39:53;3.20;96.20
18648;DHT22;9453;50.294;18.644;2023-02-27T10:42:23;3.40;94.80
18648;DHT22;9453;50.294;18.644;2023-02-27T10:44:51;3.20;93.30
18648;DHT22;9453;50.294;18.644;2023-02-27T10:47:21;3.40;93.60
18648;DHT22;9453;50.294;18.644;2023-02-27T10:49:50;3.30;92.70
18648;DHT22;9453;50.294;18.644;2023-02-27T10:52:18;2.80;91.70
18648;DHT22;9453;50.294;18.644;2023-02-27T10:54:45;3.00;91.40
18648;DHT22;9453;50.294;18.644;2023-02-27T10:57:24;2.50;91.10
18648;DHT22;9453;50.294;18.644;2023-02-27T10:59:55;2.50;88.90
18648;DHT22;9453;50.294;18.644;2023-02-27T11:02:34;2.50;86.50
18648;DHT22;9453;50.294;18.644;2023-02-27T11:05:06;2.50;83.50
18648;DHT22;9453;50.294;18.644;2023-02-27T11:07:43;2.50;82.30
18648;DHT22;9453;50.294;18.644;2023-02-27T11:10:19;2.70;82.70
18648;DHT22;9453;50.294;18.644;2023-02-27T11:13:00;2.70;81.50
18648;DHT22;9453;50.294;18.644;2023-02-27T11:15:29;2.90;81.70
18648;DHT22;9453;50.294;18.644;2023-02-27T11:18:17;2.90;83.10
18648;DHT22;9453;50.294;18.644;2023-02-27T11:20:47;3.10;82.20
18648;DHT22;9453;50.294;18.644;2023-02-27T11:23:18;3.30;82.90
18648;DHT22;9453;50.294;18.644;2023-02-27T11:25:45;3.30;81.30
18648;DHT22;9453;50.294;18.644;2023-02-27T11:28:19;3.40;83.80
18648;DHT22;9453;50.294;18.644;2023-02-27T11:30:56;3.20;87.00
18648;DHT22;9453;50.294;18.644;2023-02-27T11:33:25;3.20;87.20
18648;DHT22;9453;50.294;18.644;2023-02-27T11:35:55;3.10;86.60
18648;DHT22;9453;50.294;18.644;2023-02-27T11:38:25;3.00;89.70
18648;DHT22;9453;50.294;18.644;2023-02-27T11:40:55;3.20;89.20
18648;DHT22;9453;50.294;18.644;2023-02-27T11:43:25;3.30;87.50
18648;DHT22;9453;50.294;18.644;2023-02-27T11:45:55;3.20;83.60
18648;DHT22;9453;50.294;18.644;2023-02-27T11:48:27;3.40;83.60
18648;DHT22;9453;50.294;18.644;2023-02-27T11:51:15;3.70;84.10
18648;DHT22;9453;50.294;18.644;2023-02-27T11:54:25;4.10;84.10
18648;DHT22;9453;50.294;18.644;2023-02-27T11:56:59;4.40;82.80
18648;DHT22;9453;50.294;18.644;2023-02-27T11:59:36;4.80;80.70
18648;DHT22;9453;50.294;18.644;2023-02-27T12:02:11;4.90;80.40
18648;DHT22;9453;50.294;18.644;2023-02-27T12:04:46;4.70;80.10
18648;DHT22;9453;50.294;18.644;2023-02-27T12:07:20;4.90;80.10
18648;DHT22;9453;50.294;18.644;2023-02-27T12:09:53;4.60;77.70
18648;DHT22;9453;50.294;18.644;2023-02-27T12:12:25;4.80;78.70
18648;DHT22;9453;50.294;18.644;2023-02-27T12:15:01;4.50;75.40
18648;DHT22;9453;50.294;18.644;2023-02-27T12:17:35;4.70;77.20
18648;DHT22;9453;50.294;18.644;2023-02-27T12:20:27;4.30;72.50
18648;DHT22;9453;50.294;18.644;2023-02-27T12:22:56;4.10;73.90
18648;DHT22;9453;50.294;18.644;2023-02-27T12:25:45;4.10;73.50
18648;DHT22;9453;50.294;18.644;2023-02-27T12:28:25;4.10;74.40
18648;DHT22;9453;50.294;18.644;2023-02-27T12:31:03;3.90;75.70
18648;DHT22;9453;50.294;18.644;2023-02-27T12:33:35;3.60;77.60
18648;DHT22;9453;50.294;18.644;2023-02-27T12:36:07;3.60;76.20
18648;DHT22;9453;50.294;18.644;2023-02-27T12:38:37;3.50;73.80
18648;DHT22;9453;50.294;18.644;2023-02-27T12:41:19;3.40;74.80
18648;DHT22;9453;50.294;18.644;2023-02-27T12:44:01;3.40;75.50
18648;DHT22;9453;50.294;18.644;2023-02-27T12:46:34;3.70;75.70
18648;DHT22;9453;50.294;18.644;2023-02-27T12:49:19;3.40;81.50
18648;DHT22;9453;50.294;18.644;2023-02-27T12:51:56;3.20;82.70
18648;DHT22;9453;50.294;18.644;2023-02-27T12:54:38;2.70;85.70
18648;DHT22;9453;50.294;18.644;2023-02-27T12:57:21;2.50;86.60
18648;DHT22;9453;50.294;18.644;2023-02-27T13:00:09;2.30;87.10
18648;DHT22;9453;50.294;18.644;2023-02-27T13:05:38;2.40;82.90
18648;DHT22;9453;50.294;18.644;2023-02-27T13:08:41;2.50;80.70
18648;DHT22;9453;50.294;18.644;2023-02-27T13:11:22;2.50;79.10
18648;DHT22;9453;50.294;18.644;2023-02-27T13:13:54;2.60;84.10
18648;DHT22;9453;50.294;18.644;2023-02-27T13:16:28;2.50;82.60
18648;DHT22;9453;50.294;18.644;2023-02-27T13:18:59;2.50;84.40
18648;DHT22;9453;50.294;18.644;2023-02-27T13:21:31;2.50;84.10
18648;DHT22;9453;50.294;18.644;2023-02-27T13:24:09;2.70;85.60
18648;DHT22;9453;50.294;18.644;2023-02-27T13:26:42;2.60;86.20
18648;DHT22;9453;50.294;18.644;2023-02-27T13:29:11;3.00;86.40
18648;DHT22;9453;50.294;18.644;2023-02-27T13:31:45;3.00;82.50
18648;DHT22;9453;50.294;18.644;2023-02-27T13:34:18;3.20;82.60
18648;DHT22;9453;50.294;18.644;2023-02-27T13:36:49;3.40;83.10
18648;DHT22;9453;50.294;18.644;2023-02-27T13:45:54;3.60;80.60
18648;DHT22;9453;50.294;18.644;2023-02-27T13:48:52;3.20;84.40
18648;DHT22;9453;50.294;18.644;2023-02-27T13:51:52;3.00;87.00
18648;DHT22;9453;50.294;18.644;2023-02-27T13:54:38;2.60;86.60
18648;DHT22;9453;50.294;18.644;2023-02-27T13:57:23;2.40;88.90
18648;DHT22;9453;50.294;18.644;2023-02-27T13:59:54;2.30;90.20
18648;DHT22;9453;50.294;18.644;2023-02-27T14:02:33;2.30;90.70
18648;DHT22;9453;50.294;18.644;2023-02-27T14:05:05;2.50;91.30
18648;DHT22;9453;50.294;18.644;2023-02-27T14:07:48;2.60;91.20
18648;DHT22;9453;50.294;18.644;2023-02-27T14:10:20;2.90;91.30
18648;DHT22;9453;50.294;18.644;2023-02-27T14:12:48;3.10;90.40
18648;DHT22;9453;50.294;18.644;2023-02-27T14:15:48;3.30;88.20
18648;DHT22;9453;50.294;18.644;2023-02-27T14:18:55;3.20;84.70
18648;DHT22;9453;50.294;18.644;2023-02-27T14:21:51;3.30;85.30
18648;DHT22;9453;50.294;18.644;2023-02-27T14:24:22;3.50;85.10
18648;DHT22;9453;50.294;18.644;2023-02-27T14:26:51;3.60;80.70
18648;DHT22;9453;50.294;18.644;2023-02-27T14:29:22;3.60;78.90
18648;DHT22;9453;50.294;18.644;2023-02-27T14:31:52;3.50;78.00
18648;DHT22;9453;50.294;18.644;2023-02-27T14:34:22;3.60;78.70
18648;DHT22;9453;50.294;18.644;2023-02-27T14:36:51;3.50;77.40
18648;DHT22;9453;50.294;18.644;2023-02-27T14:39:21;3.40;77.10
18648;DHT22;9453;50.294;18.644;2023-02-27T14:42:00;3.40;76.40
18648;DHT22;9453;50.294;18.644;2023-02-27T14:44:37;3.30;76.20
18648;DHT22;9453;50.294;18.644;2023-02-27T14:47:04;3.40;75.80
18648;DHT22;9453;50.294;18.644;2023-02-27T14:49:34;3.30;75.70
18648;DHT22;9453;50.294;18.644;2023-02-27T14:52:13;3.20;76.90
18648;DHT22;9453;50.294;18.644;2023-02-27T14:54:44;3.20;76.60
18648;DHT22;9453;50.294;18.644;2023-02-27T14:57:16;3.20;75.00
18648;DHT22;9453;50.294;18.644;2023-02-27T14:59:44;3.10;74.60
18648;DHT22;9453;50.294;18.644;2023-02-27T15:02:21;3.00;74.90
18648;DHT22;9453;50.294;18.644;2023-02-27T15:04:54;3.00;75.40
18648;DHT22;9453;50.294;18.644;2023-02-27T15:07:23;3.00;75.70
18648;DHT22;9453;50.294;18.644;2023-02-27T15:09:53;3.10;76.20
18648;DHT22;9453;50.294;18.644;2023-02-27T15:12:22;3.20;74.70
18648;DHT22;9453;50.294;18.644;2023-02-27T15:14:51;3.00;71.60
18648;DHT22;9453;50.294;18.644;2023-02-27T15:17:20;2.70;71.80
18648;DHT22;9453;50.294;18.644;2023-02-27T15:19:50;2.60;72.20
18648;DHT22;9453;50.294;18.644;2023-02-27T15:22:19;2.40;72.70
18648;DHT22;9453;50.294;18.644;2023-02-27T15:24:47;2.30;73.10
18648;DHT22;9453;50.294;18.644;2023-02-27T15:27:16;2.40;74.00
18648;DHT22;9453;50.294;18.644;2023-02-27T15:29:48;2.20;72.60
18648;DHT22;9453;50.294;18.644;2023-02-27T15:32:22;2.30;72.60
18648;DHT22;9453;50.294;18.644;2023-02-27T15:34:52;2.10;72.90
18648;DHT22;9453;50.294;18.644;2023-02-27T15:37:21;2.30;73.40
18648;DHT22;9453;50.294;18.644;2023-02-27T15:39:51;2.40;74.00
18648;DHT22;9453;50.294;18.644;2023-02-27T15:42:22;2.40;74.10
18648;DHT22;9453;50.294;18.644;2023-02-27T15:44:50;2.40;73.40
18648;DHT22;9453;50.294;18.644;2023-02-27T15:47:21;2.30;74.60
18648;DHT22;9453;50.294;18.644;2023-02-27T15:49:54;2.30;74.00
18648;DHT22;9453;50.294;18.644;2023-02-27T15:52:23;2.20;74.50
18648;DHT22;9453;50.294;18.644;2023-02-27T15:54:52;2.20;75.40
18648;DHT22;9453;50.294;18.644;2023-02-27T15:57:20;1.90;76.50
18648;DHT22;9453;50.294;18.644;2023-02-27T15:59:49;1.90;77.00
18648;DHT22;9453;50.294;18.644;2023-02-27T16:02:19;1.80;75.70
18648;DHT22;9453;50.294;18.644;2023-02-27T16:04:47;1.80;76.70
18648;DHT22;9453;50.294;18.644;2023-02-27T16:07:19;1.70;76.60
18648;DHT22;9453;50.294;18.644;2023-02-27T16:09:49;1.70;76.90
18648;DHT22;9453;50.294;18.644;2023-02-27T16:12:26;1.70;76.20
18648;DHT22;9453;50.294;18.644;2023-02-27T16:15:22;1.70;77.00
18648;DHT22;9453;50.294;18.644;2023-02-27T16:17:54;1.70;77.70
18648;DHT22;9453;50.294;18.644;2023-02-27T16:20:37;1.60;76.50
18648;DHT22;9453;50.294;18.644;2023-02-27T16:23:15;1.60;77.60
18648;DHT22;9453;50.294;18.644;2023-02-27T16:25:59;1.60;77.30
18648;DHT22;9453;50.294;18.644;2023-02-27T16:28:31;1.60;78.10
18648;DHT22;9453;50.294;18.644;2023-02-27T16:30:59;1.60;78.70
18648;DHT22;9453;50.294;18.644;2023-02-27T16:33:31;1.50;77.50
18648;DHT22;9453;50.294;18.644;2023-02-27T16:36:16;1.50;78.40
18648;DHT22;9453;50.294;18.644;2023-02-27T16:38:46;1.40;78.70
18648;DHT22;9453;50.294;18.644;2023-02-27T16:41:14;1.40;79.20
18648;DHT22;9453;50.294;18.644;2023-02-27T16:43:42;1.30;79.10
18648;DHT22;9453;50.294;18.644;2023-02-27T16:46:09;1.30;79.50
18648;DHT22;9453;50.294;18.644;2023-02-27T16:48:43;1.20;79.10
18648;DHT22;9453;50.294;18.644;2023-02-27T16:51:26;1.30;79.30
18648;DHT22;9453;50.294;18.644;2023-02-27T16:54:09;1.10;79.30
18648;DHT22;9453;50.294;18.644;2023-02-27T16:56:38;1.10;79.60
18648;DHT22;9453;50.294;18.644;2023-02-27T16:59:06;1.00;80.60
18648;DHT22;9453;50.294;18.644;2023-02-27T17:01:33;0.90;79.70
18648;DHT22;9453;50.294;18.644;2023-02-27T17:04:00;0.90;80.50
18648;DHT22;9453;50.294;18.644;2023-02-27T17:06:27;0.90;80.00
18648;DHT22;9453;50.294;18.644;2023-02-27T17:08:54;0.90;80.40
18648;DHT22;9453;50.294;18.644;2023-02-27T17:11:23;1.00;80.40
18648;DHT22;9453;50.294;18.644;2023-02-27T17:13:50;1.10;80.00
18648;DHT22;9453;50.294;18.644;2023-02-27T17:16:17;1.10;80.10
18648;DHT22;9453;50.294;18.644;2023-02-27T17:18:44;1.20;80.00
18648;DHT22;9453;50.294;18.644;2023-02-27T17:21:11;1.20;79.70
18648;DHT22;9453;50.294;18.644;2023-02-27T17:23:39;1.30;80.00
18648;DHT22;9453;50.294;18.644;2023-02-27T17:26:06;1.30;79.80
18648;DHT22;9453;50.294;18.644;2023-02-27T17:28:34;1.30;80.10
18648;DHT22;9453;50.294;18.644;2023-02-27T17:31:06;1.30;80.00
18648;DHT22;9453;50.294;18.644;2023-02-27T17:33:33;1.30;79.30
18648;DHT22;9453;50.294;18.644;2023-02-27T17:36:03;1.30;79.00
18648;DHT22;9453;50.294;18.644;2023-02-27T17:38:31;1.30;78.20
18648;DHT22;9453;50.294;18.644;2023-02-27T17:40:58;1.30;78.70
18648;DHT22;9453;50.294;18.644;2023-02-27T17:43:25;1.30;78.10
18648;DHT22;9453;50.294;18.644;2023-02-27T17:45:54;1.30;77.60
18648;DHT22;9453;50.294;18.644;2023-02-27T17:48:22;1.40;78.30
18648;DHT22;9453;50.294;18.644;2023-02-27T17:50:49;1.40;77.50
18648;DHT22;9453;50.294;18.644;2023-02-27T17:53:16;1.40;77.50
18648;DHT22;9453;50.294;18.644;2023-02-27T17:55:43;1.40;76.00
18648;DHT22;9453;50.294;18.644;2023-02-27T17:58:10;1.40;75.50
18648;DHT22;9453;50.294;18.644;2023-02-27T18:00:37;1.30;75.60
18648;DHT22;9453;50.294;18.644;2023-02-27T18:03:07;1.30;75.90
18648;DHT22;9453;50.294;18.644;2023-02-27T18:05:34;1.30;75.70
18648;DHT22;9453;50.294;18.644;2023-02-27T18:08:03;1.30;76.20
18648;DHT22;9453;50.294;18.644;2023-02-27T18:10:31;1.40;76.00
18648;DHT22;9453;50.294;18.644;2023-02-27T18:12:58;1.40;75.70
18648;DHT22;9453;50.294;18.644;2023-02-27T18:15:25;1.50;75.70
18648;DHT22;9453;50.294;18.644;2023-02-27T18:17:52;1.30;74.10
18648;DHT22;9453;50.294;18.644;2023-02-27T18:20:21;1.20;73.60
18648;DHT22;9453;50.294;18.644;2023-02-27T18:22:48;1.20;74.40
18648;DHT22;9453;50.294;18.644;2023-02-27T18:25:15;1.10;74.80
18648;DHT22;9453;50.294;18.644;2023-02-27T18:27:45;1.10;74.30
18648;DHT22;9453;50.294;18.644;2023-02-27T18:30:12;1.00;74.50
18648;DHT22;9453;50.294;18.644;2023-02-27T18:32:39;1.00;75.00
18648;DHT22;9453;50.294;18.644;2023-02-27T18:35:08;0.90;74.90
18648;DHT22;9453;50.294;18.644;2023-02-27T18:37:37;0.90;75.50
18648;DHT22;9453;50.294;18.644;2023-02-27T18:40:05;0.80;75.50
18648;DHT22;9453;50.294;18.644;2023-02-27T18:42:33;0.70;75.70
18648;DHT22;9453;50.294;18.644;2023-02-27T18:45:01;0.60;75.70
18648;DHT22;9453;50.294;18.644;2023-02-27T18:47:28;0.60;75.40
18648;DHT22;9453;50.294;18.644;2023-02-27T18:49:55;0.60;75.40
18648;DHT22;9453;50.294;18.644;2023-02-27T18:52:22;0.50;76.20
18648;DHT22;9453;50.294;18.644;2023-02-27T18:54:50;0.50;76.60
18648;DHT22;9453;50.294;18.644;2023-02-27T18:57:17;0.50;77.00
18648;DHT22;9453;50.294;18.644;2023-02-27T18:59:45;0.50;77.10
18648;DHT22;9453;50.294;18.644;2023-02-27T19:02:14;0.60;77.50
18648;DHT22;9453;50.294;18.644;2023-02-27T19:04:41;0.60;77.50
18648;DHT22;9453;50.294;18.644;2023-02-27T19:07:09;0.60;77.50
18648;DHT22;9453;50.294;18.644;2023-02-27T19:09:36;0.70;78.30
18648;DHT22;9453;50.294;18.644;2023-02-27T19:12:06;0.70;77.20
18648;DHT22;9453;50.294;18.644;2023-02-27T19:14:35;0.70;76.80
18648;DHT22;9453;50.294;18.644;2023-02-27T19:17:03;0.70;77.00
18648;DHT22;9453;50.294;18.644;2023-02-27T19:19:31;0.70;77.00
18648;DHT22;9453;50.294;18.644;2023-02-27T19:21:59;0.80;76.90
18648;DHT22;9453;50.294;18.644;2023-02-27T19:24:26;0.80;76.90
18648;DHT22;9453;50.294;18.644;2023-02-27T19:26:54;0.80;76.70
18648;DHT22;9453;50.294;18.644;2023-02-27T19:29:22;0.80;76.90
18648;DHT22;9453;50.294;18.644;2023-02-27T19:31:50;0.80;77.10
18648;DHT22;9453;50.294;18.644;2023-02-27T19:34:17;0.80;76.90
18648;DHT22;9453;50.294;18.644;2023-02-27T19:36:44;0.90;77.20
18648;DHT22;9453;50.294;18.644;2023-02-27T19:39:12;0.80;76.80
18648;DHT22;9453;50.294;18.644;2023-02-27T19:41:39;0.90;76.90
18648;DHT22;9453;50.294;18.644;2023-02-27T19:44:06;0.90;77.00
18648;DHT22;9453;50.294;18.644;2023-02-27T19:46:36;0.90;76.70
18648;DHT22;9453;50.294;18.644;2023-02-27T19:49:06;0.90;76.30
18648;DHT22;9453;50.294;18.644;2023-02-27T19:51:33;0.90;76.30
18648;DHT22;9453;50.294;18.644;2023-02-27T19:54:01;1.00;76.30
18648;DHT22;9453;50.294;18.644;2023-02-27T19:56:29;0.80;76.50
18648;DHT22;9453;50.294;18.644;2023-02-27T19:58:59;0.80;76.60
18648;DHT22;9453;50.294;18.644;2023-02-27T20:01:28;0.80;76.10
18648;DHT22;9453;50.294;18.644;2023-02-27T20:03:59;0.80;76.70
18648;DHT22;9453;50.294;18.644;2023-02-27T20:06:28;0.80;76.90
18648;DHT22;9453;50.294;18.644;2023-02-27T20:08:56;0.80;76.30
18648;DHT22;9453;50.294;18.644;2023-02-27T20:11:27;0.80;76.50
18648;DHT22;9453;50.294;18.644;2023-02-27T20:13:55;0.80;76.60
18648;DHT22;9453;50.294;18.644;2023-02-27T20:16:23;0.70;77.00
18648;DHT22;9453;50.294;18.644;2023-02-27T20:18:52;0.70;77.50
18648;DHT22;9453;50.294;18.644;2023-02-27T20:21:22;0.60;76.80
18648;DHT22;9453;50.294;18.644;2023-02-27T20:23:50;0.60;77.00
18648;DHT22;9453;50.294;18.644;2023-02-27T20:26:21;0.50;77.50
18648;DHT22;9453;50.294;18.644;2023-02-27T20:28:50;0.50;77.60
18648;DHT22;9453;50.294;18.644;2023-02-27T20:31:19;0.40;78.20
18648;DHT22;9453;50.294;18.644;2023-02-27T20:33:47;0.40;78.20
18648;DHT22;9453;50.294;18.644;2023-02-27T20:36:15;0.50;78.40
18648;DHT22;9453;50.294;18.644;2023-02-27T20:38:43;0.50;78.40
18648;DHT22;9453;50.294;18.644;2023-02-27T20:41:13;0.50;78.60
18648;DHT22;9453;50.294;18.644;2023-02-27T20:43:41;0.50;78.80
18648;DHT22;9453;50.294;18.644;2023-02-27T20:46:10;0.50;79.20
18648;DHT22;9453;50.294;18.644;2023-02-27T20:48:38;0.60;79.20
18648;DHT22;9453;50.294;18.644;2023-02-27T20:51:08;0.50;78.60
18648;DHT22;9453;50.294;18.644;2023-02-27T20:53:37;0.50;79.30
18648;DHT22;9453;50.294;18.644;2023-02-27T20:56:07;0.50;79.00
18648;DHT22;9453;50.294;18.644;2023-02-27T20:58:35;0.60;79.00
18648;DHT22;9453;50.294;18.644;2023-02-27T21:01:06;0.60;79.50
18648;DHT22;9453;50.294;18.644;2023-02-27T21:03:36;0.70;79.50
18648;DHT22;9453;50.294;18.644;2023-02-27T21:06:04;0.70;79.40
18648;DHT22;9453;50.294;18.644;2023-02-27T21:08:34;0.80;78.70
18648;DHT22;9453;50.294;18.644;2023-02-27T21:11:08;0.90;78.80
18648;DHT22;9453;50.294;18.644;2023-02-27T21:13:39;1.00;79.10
18648;DHT22;9453;50.294;18.644;2023-02-27T21:16:08;1.10;79.00
18648;DHT22;9453;50.294;18.644;2023-02-27T21:18:36;1.20;78.30
18648;DHT22;9453;50.294;18.644;2023-02-27T21:21:05;1.30;77.90
18648;DHT22;9453;50.294;18.644;2023-02-27T21:23:35;1.30;77.10
18648;DHT22;9453;50.294;18.644;2023-02-27T21:26:08;1.40;77.00